createdAt,value
2017-10-29T00:00:24.665Z,15.80
2017-10-29T00:02:52.121Z,15.80
2017-10-29T00:05:19.554Z,15.40
2017-10-29T00:07:47.900Z,15.80
2017-10-29T00:10:16.126Z,16.10
2017-10-29T00:12:43.608Z,16.10
2017-10-29T00:15:11.074Z,16.00
2017-10-29T00:17:39.324Z,15.60
2017-10-29T00:20:06.789Z,15.50
2017-10-29T00:22:34.258Z,15.80
2017-10-29T00:25:01.706Z,15.80
2017-10-29T00:27:29.166Z,15.70
2017-10-29T00:29:56.624Z,15.50
2017-10-29T00:32:24.839Z,15.50
2017-10-29T00:34:53.151Z,15.40
2017-10-29T00:37:21.297Z,15.40
2017-10-29T00:39:48.739Z,15.60
2017-10-29T00:42:16.988Z,15.60
2017-10-29T00:44:44.431Z,15.60
2017-10-29T00:47:12.655Z,15.70
2017-10-29T00:49:40.877Z,15.40
2017-10-29T00:52:09.405Z,15.40
2017-10-29T00:54:37.668Z,15.20
2017-10-29T00:57:05.126Z,15.20
2017-10-29T00:59:32.599Z,15.30
2017-10-29T01:02:00.886Z,15.60
2017-10-29T01:04:29.082Z,15.60
2017-10-29T01:06:56.527Z,15.60
2017-10-29T01:09:23.957Z,15.60
2017-10-29T01:11:52.157Z,15.90
2017-10-29T01:14:19.659Z,15.90
2017-10-29T01:16:47.137Z,15.80
2017-10-29T01:19:14.616Z,15.40
2017-10-29T01:21:42.800Z,15.90
2017-10-29T01:24:10.280Z,15.90
2017-10-29T01:26:37.724Z,15.80
2017-10-29T01:29:05.163Z,15.90
2017-10-29T01:31:33.380Z,15.50
2017-10-29T01:34:00.869Z,15.50
2017-10-29T01:36:28.338Z,15.60
2017-10-29T01:38:55.846Z,15.60
2017-10-29T01:41:23.282Z,15.70
2017-10-29T01:43:50.744Z,15.60
2017-10-29T01:46:18.197Z,15.50
2017-10-29T01:48:45.662Z,15.40
2017-10-29T01:51:13.131Z,15.10
2017-10-29T01:53:40.573Z,15.30
2017-10-29T01:56:08.030Z,15.50
2017-10-29T01:58:35.490Z,15.50
2017-10-29T02:01:03.743Z,15.50
2017-10-29T02:03:31.973Z,15.90
2017-10-29T02:05:59.542Z,15.90
2017-10-29T02:08:27.045Z,16.20
2017-10-29T02:10:55.251Z,16.30
2017-10-29T02:13:22.710Z,16.30
2017-10-29T02:15:50.169Z,15.90
2017-10-29T02:18:17.632Z,15.70
2017-10-29T02:20:45.413Z,16.10
2017-10-29T02:23:12.845Z,15.90
2017-10-29T02:25:40.310Z,15.80
2017-10-29T02:28:07.765Z,15.50
2017-10-29T02:30:35.220Z,15.70
2017-10-29T02:33:02.699Z,16.00
2017-10-29T02:35:30.142Z,16.00
2017-10-29T02:37:57.601Z,15.80
2017-10-29T02:40:25.061Z,15.20
2017-10-29T02:42:52.543Z,15.50
2017-10-29T02:45:20.002Z,15.60
2017-10-29T02:47:47.455Z,15.40
2017-10-29T02:50:14.898Z,15.50
2017-10-29T02:52:42.366Z,15.40
2017-10-29T02:55:09.814Z,15.70
2017-10-29T02:57:38.033Z,15.40
2017-10-29T03:00:06.266Z,15.40
2017-10-29T03:02:34.475Z,15.40
2017-10-29T03:05:01.938Z,15.40
2017-10-29T03:07:30.193Z,15.40
2017-10-29T03:09:57.644Z,15.30
2017-10-29T03:12:25.106Z,15.60
2017-10-29T03:14:52.577Z,15.90
2017-10-29T03:17:20.021Z,15.80
2017-10-29T03:19:47.458Z,15.60
2017-10-29T03:22:14.918Z,15.60
2017-10-29T03:24:42.510Z,15.50
2017-10-29T03:27:10.061Z,15.30
2017-10-29T03:29:37.502Z,15.70
2017-10-29T03:32:04.962Z,15.60
2017-10-29T03:34:32.427Z,15.10
2017-10-29T03:37:00.629Z,15.00
2017-10-29T03:39:28.879Z,14.80
2017-10-29T03:41:56.377Z,14.80
2017-10-29T03:44:23.821Z,14.70
2017-10-29T03:46:51.285Z,14.80
2017-10-29T03:49:18.718Z,14.80
2017-10-29T03:51:46.173Z,14.70
2017-10-29T03:54:13.627Z,14.60
2017-10-29T03:56:41.094Z,14.60
2017-10-29T03:59:08.559Z,14.80
2017-10-29T04:01:36.010Z,15.10
2017-10-29T04:04:04.010Z,15.50
2017-10-29T04:06:32.206Z,15.00
2017-10-29T04:08:59.629Z,15.00
2017-10-29T04:11:27.829Z,14.40
2017-10-29T04:13:55.271Z,14.40
2017-10-29T04:16:23.502Z,14.50
2017-10-29T04:18:51.013Z,14.50
2017-10-29T04:21:19.201Z,14.40
2017-10-29T04:23:46.642Z,14.40
2017-10-29T04:26:14.881Z,14.30
2017-10-29T04:28:42.359Z,14.30
2017-10-29T04:31:09.826Z,14.30
2017-10-29T04:33:38.037Z,14.40
2017-10-29T04:36:05.477Z,14.40
2017-10-29T04:38:33.704Z,14.10
2017-10-29T04:41:01.161Z,14.00
2017-10-29T04:43:28.623Z,13.90
2017-10-29T04:45:56.083Z,13.80
2017-10-29T04:48:23.556Z,13.70
2017-10-29T04:50:51.815Z,13.80
2017-10-29T04:53:19.295Z,13.80
2017-10-29T04:55:47.513Z,14.00
2017-10-29T04:58:14.956Z,14.00
2017-10-29T05:00:42.395Z,14.00
2017-10-29T05:03:10.656Z,13.60
2017-10-29T05:05:38.111Z,13.60
2017-10-29T05:08:05.593Z,13.80
2017-10-29T05:10:33.076Z,14.10
2017-10-29T05:13:00.533Z,14.20
2017-10-29T05:15:27.991Z,14.00
2017-10-29T05:17:55.441Z,14.10
2017-10-29T05:20:22.898Z,14.30
2017-10-29T05:22:50.363Z,14.10
2017-10-29T05:25:17.820Z,14.10
2017-10-29T05:27:45.289Z,14.10
2017-10-29T05:30:12.753Z,14.30
2017-10-29T05:32:40.212Z,14.60
2017-10-29T05:35:07.689Z,14.30
2017-10-29T05:37:35.135Z,14.60
2017-10-29T05:40:02.599Z,14.30
2017-10-29T05:42:30.035Z,14.50
2017-10-29T05:44:57.474Z,14.30
2017-10-29T05:47:24.926Z,14.00
2017-10-29T05:49:52.383Z,14.20
2017-10-29T05:52:20.581Z,13.90
2017-10-29T05:54:48.050Z,13.90
2017-10-29T05:57:15.494Z,13.90
2017-10-29T05:59:42.937Z,13.90
2017-10-29T06:02:10.400Z,14.10
2017-10-29T06:04:37.851Z,13.90
2017-10-29T06:07:05.298Z,13.90
2017-10-29T06:09:32.752Z,13.50
2017-10-29T06:12:00.969Z,13.50
2017-10-29T06:14:28.460Z,13.50
2017-10-29T06:16:56.005Z,13.20
2017-10-29T06:19:23.486Z,13.30
2017-10-29T06:21:50.945Z,13.50
2017-10-29T06:24:18.408Z,13.40
2017-10-29T06:26:45.850Z,13.30
2017-10-29T06:29:13.307Z,13.60
2017-10-29T06:31:40.761Z,13.50
2017-10-29T06:34:08.223Z,13.50
2017-10-29T06:36:35.673Z,13.80
2017-10-29T06:39:03.127Z,13.60
2017-10-29T06:41:30.620Z,13.50
2017-10-29T06:43:58.834Z,13.80
2017-10-29T06:46:26.312Z,13.80
2017-10-29T06:48:53.785Z,13.70
2017-10-29T06:51:21.253Z,13.80
2017-10-29T06:53:48.735Z,13.80
2017-10-29T06:56:16.993Z,14.00
2017-10-29T06:58:44.476Z,14.00
2017-10-29T07:01:11.950Z,13.90
2017-10-29T07:03:39.388Z,14.00
2017-10-29T07:06:07.576Z,14.10
2017-10-29T07:08:35.025Z,14.00
2017-10-29T07:11:02.457Z,13.90
2017-10-29T07:13:30.664Z,13.70
2017-10-29T07:15:58.110Z,13.60
2017-10-29T07:18:25.861Z,13.50
2017-10-29T07:20:54.062Z,13.70
2017-10-29T07:23:21.525Z,13.70
2017-10-29T07:25:48.966Z,13.80
2017-10-29T07:28:16.442Z,13.80
2017-10-29T07:30:43.959Z,14.00
2017-10-29T07:33:11.469Z,13.90
2017-10-29T07:35:38.925Z,14.10
2017-10-29T07:38:06.378Z,14.20
2017-10-29T07:40:33.900Z,14.30
2017-10-29T07:43:02.098Z,14.50
2017-10-29T07:45:29.537Z,14.40
2017-10-29T07:47:57.741Z,14.60
2017-10-29T07:50:25.178Z,14.50
2017-10-29T07:52:53.584Z,14.40
2017-10-29T07:55:21.046Z,14.40
2017-10-29T07:57:48.470Z,15.00
2017-10-29T08:00:15.946Z,15.30
2017-10-29T08:02:43.399Z,15.30
2017-10-29T08:05:10.837Z,15.50
2017-10-29T08:07:39.191Z,15.30
2017-10-29T08:10:06.619Z,15.30
2017-10-29T08:12:34.058Z,15.30
2017-10-29T08:15:01.521Z,15.40
2017-10-29T08:17:28.971Z,15.40
2017-10-29T08:19:56.431Z,15.90
2017-10-29T08:22:23.870Z,16.60
2017-10-29T08:24:51.332Z,17.90
2017-10-29T08:27:18.819Z,18.90
2017-10-29T08:29:46.277Z,18.40
2017-10-29T08:32:13.729Z,18.80
2017-10-29T08:34:41.185Z,19.10
2017-10-29T08:37:08.650Z,19.30
2017-10-29T08:39:36.106Z,20.40
2017-10-29T08:42:04.489Z,21.20
2017-10-29T08:44:32.077Z,20.70
2017-10-29T08:46:59.510Z,20.60
2017-10-29T08:49:26.954Z,20.80
2017-10-29T08:51:54.406Z,21.30
2017-10-29T08:54:21.870Z,20.90
2017-10-29T08:56:49.317Z,20.30
2017-10-29T08:59:16.785Z,20.50
2017-10-29T09:01:44.266Z,21.00
2017-10-29T09:04:11.724Z,22.10
2017-10-29T09:06:39.172Z,22.60
2017-10-29T09:09:06.632Z,23.20
2017-10-29T09:11:34.101Z,23.50
2017-10-29T09:14:01.530Z,23.20
2017-10-29T09:16:29.010Z,23.20
2017-10-29T09:18:56.455Z,23.10
2017-10-29T09:21:23.930Z,24.00
2017-10-29T09:23:51.358Z,23.60
2017-10-29T09:26:18.847Z,24.40
2017-10-29T09:28:46.368Z,25.50
2017-10-29T09:31:13.833Z,25.00
2017-10-29T09:33:41.288Z,24.20
2017-10-29T09:36:08.746Z,24.70
2017-10-29T09:38:36.237Z,25.10
2017-10-29T09:41:04.639Z,24.40
2017-10-29T09:43:32.885Z,21.90
2017-10-29T09:46:00.346Z,21.80
2017-10-29T09:48:27.822Z,20.30
2017-10-29T09:50:55.285Z,19.80
2017-10-29T09:53:22.728Z,19.30
2017-10-29T09:55:50.211Z,19.30
2017-10-29T09:58:17.685Z,19.80
2017-10-29T10:00:45.917Z,21.00
2017-10-29T10:03:13.377Z,21.00
2017-10-29T10:05:40.853Z,21.00
2017-10-29T10:08:08.333Z,20.50
2017-10-29T10:10:35.773Z,21.00
2017-10-29T10:13:04.886Z,20.60
2017-10-29T10:15:32.408Z,20.60
2017-10-29T10:18:00.490Z,20.80
2017-10-29T10:20:27.961Z,21.10
2017-10-29T10:22:55.418Z,20.40
2017-10-29T10:25:22.872Z,19.80
2017-10-29T10:27:50.297Z,19.70
2017-10-29T10:30:17.756Z,20.00
2017-10-29T10:32:45.193Z,19.80
2017-10-29T10:35:12.626Z,19.50
2017-10-29T10:37:40.083Z,19.50
2017-10-29T10:40:07.558Z,19.90
2017-10-29T10:42:35.024Z,21.10
2017-10-29T10:45:02.497Z,22.80
2017-10-29T10:47:29.926Z,23.40
2017-10-29T10:49:58.165Z,25.30
2017-10-29T10:52:25.612Z,25.30
2017-10-29T10:54:53.072Z,26.10
2017-10-29T10:57:20.533Z,26.60
2017-10-29T10:59:48.089Z,26.40
2017-10-29T11:02:15.562Z,26.60
2017-10-29T11:04:43.004Z,25.60
2017-10-29T11:07:10.776Z,25.00
2017-10-29T11:09:38.240Z,24.20
2017-10-29T11:12:05.695Z,24.00
2017-10-29T11:14:33.206Z,20.40
2017-10-29T11:17:00.678Z,19.60
2017-10-29T11:19:28.126Z,19.80
2017-10-29T11:21:55.598Z,19.10
2017-10-29T11:24:23.860Z,21.30
2017-10-29T11:26:51.313Z,21.20
2017-10-29T11:29:18.758Z,23.20
2017-10-29T11:31:46.224Z,23.90
2017-10-29T11:34:13.652Z,24.40
2017-10-29T11:36:41.851Z,25.50
2017-10-29T11:39:09.326Z,25.50
2017-10-29T11:41:36.771Z,26.00
2017-10-29T11:44:05.665Z,25.40
2017-10-29T11:46:33.146Z,25.40
2017-10-29T11:49:00.593Z,25.10
2017-10-29T11:51:28.038Z,25.70
2017-10-29T11:53:55.494Z,26.40
2017-10-29T11:56:22.957Z,26.10
2017-10-29T11:58:50.438Z,24.90
2017-10-29T12:01:17.913Z,24.70
2017-10-29T12:03:45.349Z,23.00
2017-10-29T12:06:12.796Z,23.10
2017-10-29T12:08:40.273Z,23.10
2017-10-29T12:11:07.730Z,22.80
2017-10-29T12:13:35.186Z,22.30
2017-10-29T12:16:02.664Z,22.10
2017-10-29T12:18:30.093Z,21.60
2017-10-29T12:20:57.545Z,21.70
2017-10-29T12:23:25.797Z,22.00
2017-10-29T12:25:54.115Z,21.90
2017-10-29T12:28:21.583Z,21.10
2017-10-29T12:30:50.100Z,19.90
2017-10-29T12:33:18.352Z,18.20
2017-10-29T12:35:45.777Z,18.10
2017-10-29T12:38:13.238Z,18.40
2017-10-29T12:40:40.718Z,19.30
2017-10-29T12:43:08.174Z,20.90
2017-10-29T12:45:35.621Z,22.00
2017-10-29T12:48:03.170Z,22.20
2017-10-29T12:50:30.719Z,23.30
2017-10-29T12:52:58.267Z,24.00
2017-10-29T12:55:26.475Z,24.80
2017-10-29T12:57:53.965Z,24.70
2017-10-29T13:00:22.168Z,25.00
2017-10-29T13:02:49.622Z,25.00
2017-10-29T13:05:17.114Z,24.00
2017-10-29T13:07:44.591Z,23.70
2017-10-29T13:10:12.049Z,23.80
2017-10-29T13:12:39.529Z,24.40
2017-10-29T13:15:07.738Z,26.10
2017-10-29T13:17:35.760Z,26.10
2017-10-29T13:20:03.210Z,25.80
2017-10-29T13:22:31.430Z,25.50
2017-10-29T13:24:58.886Z,24.60
2017-10-29T13:27:27.075Z,25.20
2017-10-29T13:29:54.500Z,25.20
2017-10-29T13:32:22.753Z,25.50
2017-10-29T13:34:50.216Z,25.50
2017-10-29T13:37:17.677Z,23.80
2017-10-29T13:39:45.890Z,22.20
2017-10-29T13:42:16.061Z,22.10
2017-10-29T13:44:43.926Z,21.40
2017-10-29T13:47:11.514Z,20.60
2017-10-29T13:49:39.724Z,20.60
2017-10-29T13:52:07.153Z,20.60
2017-10-29T13:54:35.391Z,21.00
2017-10-29T13:57:02.845Z,21.00
2017-10-29T13:59:30.276Z,21.60
2017-10-29T14:01:59.282Z,22.10
2017-10-29T14:04:27.561Z,22.50
2017-10-29T14:06:54.980Z,22.50
2017-10-29T14:09:22.485Z,22.00
2017-10-29T14:11:49.931Z,21.30
2017-10-29T14:14:17.387Z,20.40
2017-10-29T14:16:44.818Z,20.00
2017-10-29T14:19:12.268Z,19.70
2017-10-29T14:21:39.722Z,19.00
2017-10-29T14:24:11.711Z,18.40
2017-10-29T14:26:39.179Z,18.40
2017-10-29T14:29:07.407Z,18.00
2017-10-29T14:31:35.641Z,18.00
2017-10-29T14:34:03.497Z,18.00
2017-10-29T14:36:30.969Z,17.60
2017-10-29T14:38:58.420Z,17.50
2017-10-29T14:41:25.869Z,17.40
2017-10-29T14:43:53.324Z,17.50
2017-10-29T14:46:20.789Z,17.70
2017-10-29T14:48:48.241Z,17.60
2017-10-29T14:51:15.731Z,17.60
2017-10-29T14:53:43.954Z,17.50
2017-10-29T14:56:11.411Z,17.50
2017-10-29T14:58:38.873Z,17.60
2017-10-29T15:01:06.290Z,17.60
2017-10-29T15:03:33.737Z,17.20
2017-10-29T15:06:01.169Z,17.30
2017-10-29T15:08:28.639Z,17.50
2017-10-29T15:10:56.053Z,17.10
2017-10-29T15:13:24.293Z,16.40
2017-10-29T15:15:51.744Z,16.30
2017-10-29T15:18:19.228Z,16.40
2017-10-29T15:20:47.448Z,16.40
2017-10-29T15:23:14.889Z,16.40
2017-10-29T15:25:42.323Z,16.10
2017-10-29T15:28:10.523Z,16.30
2017-10-29T15:30:37.961Z,16.30
2017-10-29T15:33:05.442Z,16.40
2017-10-29T15:35:32.876Z,16.60
2017-10-29T15:38:00.360Z,16.70
2017-10-29T15:40:27.817Z,16.60
2017-10-29T15:42:55.260Z,16.50
2017-10-29T15:45:22.705Z,16.40
2017-10-29T15:48:00.336Z,16.30
2017-10-29T15:50:28.069Z,15.90
2017-10-29T15:52:55.538Z,15.60
2017-10-29T15:55:22.991Z,15.50
2017-10-29T15:57:50.443Z,15.40
2017-10-29T16:00:18.648Z,15.90
2017-10-29T16:02:46.109Z,15.80
2017-10-29T16:05:13.591Z,15.90
2017-10-29T16:07:41.017Z,15.30
2017-10-29T16:10:08.459Z,14.60
2017-10-29T16:12:35.898Z,14.80
2017-10-29T16:15:04.113Z,15.20
2017-10-29T16:17:31.566Z,15.20
2017-10-29T16:19:59.014Z,15.20
2017-10-29T16:22:26.442Z,14.90
2017-10-29T16:24:54.709Z,14.90
2017-10-29T16:27:22.162Z,14.80
2017-10-29T16:29:49.615Z,14.70
2017-10-29T16:32:17.073Z,14.80
2017-10-29T16:34:44.534Z,14.80
2017-10-29T16:37:12.765Z,14.70
2017-10-29T16:39:40.224Z,14.60
2017-10-29T16:42:07.685Z,14.70
2017-10-29T16:44:35.129Z,14.70
2017-10-29T16:47:02.584Z,14.70
2017-10-29T16:49:30.059Z,14.60
2017-10-29T16:51:57.485Z,14.70
2017-10-29T16:54:24.935Z,14.60
2017-10-29T16:56:53.127Z,14.30
2017-10-29T16:59:20.604Z,14.30
2017-10-29T17:01:48.053Z,14.10
2017-10-29T17:04:15.524Z,14.10
2017-10-29T17:06:42.971Z,14.30
2017-10-29T17:09:10.422Z,14.60
2017-10-29T17:11:37.886Z,14.90
2017-10-29T17:14:06.495Z,14.90
2017-10-29T17:16:33.952Z,14.90
2017-10-29T17:19:01.374Z,14.60
2017-10-29T17:21:28.841Z,14.10
2017-10-29T17:23:56.334Z,14.00
2017-10-29T17:26:23.769Z,13.80
2017-10-29T17:28:52.045Z,13.90
2017-10-29T17:31:19.526Z,13.80
2017-10-29T17:33:46.969Z,14.00
2017-10-29T17:36:14.425Z,14.10
2017-10-29T17:38:41.918Z,14.00
2017-10-29T17:41:09.349Z,14.00
2017-10-29T17:43:36.811Z,14.00
2017-10-29T17:46:04.267Z,13.90
2017-10-29T17:48:31.738Z,14.00
2017-10-29T17:50:59.175Z,14.00
2017-10-29T17:53:26.645Z,13.90
2017-10-29T17:55:54.121Z,13.80
2017-10-29T17:58:21.552Z,13.80
2017-10-29T18:00:49.029Z,13.60
2017-10-29T18:03:16.474Z,13.70
2017-10-29T18:05:43.926Z,13.50
2017-10-29T18:08:11.386Z,13.60
2017-10-29T18:10:38.859Z,13.60
2017-10-29T18:13:06.318Z,13.70
2017-10-29T18:15:33.769Z,13.60
2017-10-29T18:18:01.239Z,13.50
2017-10-29T18:20:28.690Z,13.30
2017-10-29T18:22:56.169Z,13.30
2017-10-29T18:25:23.610Z,13.30
2017-10-29T18:27:51.076Z,13.50
2017-10-29T18:30:18.571Z,13.00
2017-10-29T18:32:45.985Z,12.90
2017-10-29T18:35:13.470Z,13.10
2017-10-29T18:37:41.645Z,13.20
2017-10-29T18:40:09.847Z,13.30
2017-10-29T18:42:37.267Z,13.20
2017-10-29T18:45:06.425Z,13.10
2017-10-29T18:47:33.942Z,13.10
2017-10-29T18:50:01.398Z,13.20
2017-10-29T18:52:29.578Z,13.00
2017-10-29T18:54:57.034Z,13.00
2017-10-29T18:57:25.267Z,12.90
2017-10-29T19:02:27.455Z,12.70
2017-10-29T19:04:54.908Z,12.60
2017-10-29T19:07:22.373Z,12.70
2017-10-29T19:09:49.829Z,12.80
2017-10-29T19:12:17.334Z,12.80
2017-10-29T19:14:45.526Z,12.60
2017-10-29T19:17:12.961Z,12.60
2017-10-29T19:19:40.401Z,12.40
2017-10-29T19:22:08.669Z,12.60
2017-10-29T19:24:36.878Z,12.60
2017-10-29T19:27:04.319Z,12.60
2017-10-29T19:29:31.756Z,12.50
2017-10-29T19:32:00.008Z,12.30
2017-10-29T19:34:27.470Z,12.30
2017-10-29T19:36:54.914Z,12.40
2017-10-29T19:39:22.349Z,12.60
2017-10-29T19:41:49.786Z,12.80
2017-10-29T19:44:18.001Z,12.70
2017-10-29T19:46:48.124Z,12.60
2017-10-29T19:49:16.017Z,12.70
2017-10-29T19:51:43.627Z,12.40
2017-10-29T19:54:11.095Z,12.50
2017-10-29T19:56:38.559Z,12.60
2017-10-29T19:59:06.013Z,12.70
2017-10-29T20:01:33.477Z,12.10
2017-10-29T20:04:00.940Z,12.10
2017-10-29T20:06:28.398Z,12.10
2017-10-29T20:08:55.855Z,12.10
2017-10-29T20:11:23.334Z,12.20
2017-10-29T20:13:51.532Z,12.10
2017-10-29T20:16:19.761Z,12.00
2017-10-29T20:18:47.179Z,12.00
2017-10-29T20:21:15.403Z,12.20
2017-10-29T20:23:42.863Z,12.20
2017-10-29T20:26:10.370Z,12.00
2017-10-29T20:28:38.546Z,12.40
2017-10-29T20:31:05.977Z,12.40
2017-10-29T20:33:33.453Z,12.40
2017-10-29T20:36:01.694Z,12.30
2017-10-29T20:38:29.257Z,12.30
2017-10-29T20:40:56.734Z,12.30
2017-10-29T20:43:24.203Z,12.40
2017-10-29T20:45:52.454Z,12.20
2017-10-29T20:48:19.911Z,12.20
2017-10-29T20:50:47.377Z,12.00
2017-10-29T20:53:14.926Z,12.20
2017-10-29T20:55:42.398Z,12.10
2017-10-29T20:58:10.695Z,12.30
2017-10-29T21:00:38.915Z,12.20
2017-10-29T21:03:06.346Z,12.10
2017-10-29T21:05:33.811Z,12.20
2017-10-29T21:08:01.993Z,12.10
2017-10-29T21:10:29.477Z,12.10
2017-10-29T21:12:56.957Z,12.10
2017-10-29T21:15:24.433Z,11.80
2017-10-29T21:17:52.651Z,12.10
2017-10-29T21:20:20.081Z,12.00
2017-10-29T21:22:47.545Z,11.70
2017-10-29T21:25:15.443Z,11.70
2017-10-29T21:27:43.402Z,11.80
2017-10-29T21:30:10.848Z,11.90
2017-10-29T21:32:38.297Z,12.00
2017-10-29T21:35:05.977Z,11.90
2017-10-29T21:37:34.408Z,11.70
2017-10-29T21:40:02.650Z,11.80
2017-10-29T21:42:30.102Z,11.80
2017-10-29T21:47:31.089Z,11.70
2017-10-29T21:50:00.377Z,11.60
2017-10-29T21:52:27.806Z,11.40
2017-10-29T21:54:55.262Z,11.60
2017-10-29T21:57:22.722Z,11.60
2017-10-29T21:59:50.177Z,11.70
2017-10-29T22:02:19.281Z,11.90
2017-10-29T22:04:46.741Z,11.70
2017-10-29T22:07:14.214Z,11.70
2017-10-29T22:09:41.649Z,11.70
2017-10-29T22:12:09.118Z,11.80
2017-10-29T22:14:36.558Z,11.60
2017-10-29T22:17:04.011Z,11.70
2017-10-29T22:19:31.457Z,11.60
2017-10-29T22:21:59.738Z,11.80
2017-10-29T22:24:30.839Z,11.80
2017-10-29T22:26:58.290Z,11.80
2017-10-29T22:29:26.214Z,11.80
2017-10-29T22:31:53.698Z,11.10
2017-10-29T22:34:21.180Z,11.00
2017-10-29T22:36:48.701Z,11.40
2017-10-29T22:39:16.171Z,11.50
2017-10-29T22:41:43.660Z,11.50
2017-10-29T22:44:11.918Z,11.40
2017-10-29T22:46:39.429Z,11.40
2017-10-29T22:49:07.671Z,11.40
2017-10-29T22:51:35.873Z,11.40
2017-10-29T22:54:04.091Z,11.40
2017-10-29T22:56:31.568Z,11.40
2017-10-29T22:58:59.039Z,11.30
2017-10-29T23:01:26.468Z,11.20
2017-10-29T23:03:53.929Z,11.00
2017-10-29T23:06:33.314Z,11.10
2017-10-29T23:09:00.770Z,11.20
2017-10-29T23:11:28.248Z,10.90
2017-10-29T23:13:55.741Z,11.30
2017-10-29T23:16:23.166Z,11.30
2017-10-29T23:18:51.384Z,11.00
2017-10-29T23:21:18.943Z,11.00
2017-10-29T23:23:46.402Z,11.10
2017-10-29T23:26:13.869Z,11.30
2017-10-29T23:28:41.334Z,11.00
2017-10-29T23:31:08.777Z,10.90
2017-10-29T23:33:36.983Z,11.20
2017-10-29T23:36:05.172Z,11.10
2017-10-29T23:38:33.396Z,11.00
2017-10-29T23:41:00.815Z,11.00
2017-10-29T23:43:28.276Z,10.90
2017-10-29T23:45:55.724Z,11.10
2017-10-29T23:48:23.166Z,11.20
2017-10-29T23:50:51.382Z,11.20
2017-10-29T23:53:18.822Z,11.20
2017-10-29T23:55:46.261Z,11.30
2017-10-29T23:58:14.477Z,11.60
